createdAt,value
2023-02-07T00:01:18.775Z,7.33
2023-02-07T00:04:23.224Z,6.70
2023-02-07T00:07:27.151Z,7.27
2023-02-07T00:10:31.060Z,7.70
2023-02-07T00:13:35.330Z,7.87
2023-02-07T00:16:40.925Z,9.67
2023-02-07T00:19:44.823Z,8.30
2023-02-07T00:22:48.915Z,9.23
2023-02-07T00:25:52.708Z,8.63
2023-02-07T00:28:58.375Z,8.00
2023-02-07T00:32:03.663Z,8.37
2023-02-07T00:35:08.735Z,7.80
2023-02-07T00:38:12.470Z,7.93
2023-02-07T00:41:18.907Z,10.23
2023-02-07T00:44:22.851Z,8.17
2023-02-07T00:47:28.117Z,7.07
2023-02-07T00:50:31.994Z,8.87
2023-02-07T00:53:36.094Z,9.77
2023-02-07T00:56:39.965Z,10.57
2023-02-07T00:59:43.696Z,12.03
2023-02-07T01:02:48.877Z,9.63
2023-02-07T01:05:52.667Z,11.37
2023-02-07T01:08:58.499Z,10.00
2023-02-07T01:12:04.338Z,11.33
2023-02-07T01:15:09.194Z,14.70
2023-02-07T01:18:14.550Z,12.73
2023-02-07T01:21:19.762Z,10.87
2023-02-07T01:24:23.541Z,11.43
2023-02-07T01:27:27.405Z,11.73
2023-02-07T01:30:31.192Z,10.03
2023-02-07T01:33:36.631Z,10.77
2023-02-07T01:36:40.890Z,10.07
2023-02-07T01:39:45.989Z,10.00
2023-02-07T01:42:49.824Z,9.53
2023-02-07T01:45:53.849Z,9.70
2023-02-07T01:49:04.127Z,9.40
2023-02-07T01:52:12.985Z,9.50
2023-02-07T01:55:21.180Z,8.80
2023-02-07T01:58:25.940Z,7.83
2023-02-07T02:01:29.843Z,7.87
2023-02-07T02:04:35.064Z,10.00
2023-02-07T02:07:41.091Z,7.20
2023-02-07T02:11:08.467Z,7.97
2023-02-07T02:14:24.549Z,8.60
2023-02-07T02:17:40.042Z,7.23
2023-02-07T02:21:17.776Z,8.97
2023-02-07T02:25:07.613Z,10.70
2023-02-07T02:28:53.358Z,7.60
2023-02-07T02:32:18.704Z,7.33
2023-02-07T02:35:30.469Z,6.57
2023-02-07T02:38:40.167Z,5.93
2023-02-07T02:41:53.550Z,5.80
2023-02-07T02:45:01.759Z,5.50
2023-02-07T02:48:07.324Z,5.50
2023-02-07T02:51:13.106Z,26.83
2023-02-07T02:54:32.841Z,10.03
2023-02-07T02:58:02.080Z,7.90
2023-02-07T03:01:20.812Z,13.13
2023-02-07T03:04:49.277Z,71.97
2023-02-07T03:08:05.020Z,21.50
2023-02-07T03:11:15.070Z,7.73
2023-02-07T03:14:28.455Z,7.27
2023-02-07T03:17:38.591Z,6.13
2023-02-07T03:20:49.730Z,5.63
2023-02-07T03:23:58.668Z,5.97
2023-02-07T03:27:09.241Z,6.13
2023-02-07T03:30:17.887Z,5.93
2023-02-07T03:33:22.332Z,6.13
2023-02-07T03:36:32.027Z,6.00
2023-02-07T03:39:37.282Z,5.53
2023-02-07T03:42:45.049Z,5.97
2023-02-07T03:45:48.767Z,6.20
2023-02-07T03:48:52.608Z,5.97
2023-02-07T03:51:56.228Z,6.10
2023-02-07T03:55:01.448Z,6.03
2023-02-07T03:58:05.115Z,5.77
2023-02-07T04:01:08.843Z,6.27
2023-02-07T04:04:13.400Z,5.43
2023-02-07T04:07:17.248Z,6.40
2023-02-07T04:10:22.496Z,4.80
2023-02-07T04:13:26.228Z,6.23
2023-02-07T04:16:30.124Z,5.80
2023-02-07T04:19:33.788Z,6.37
2023-02-07T04:22:37.530Z,5.73
2023-02-07T04:25:43.112Z,5.13
2023-02-07T04:28:46.743Z,5.50
2023-02-07T04:31:50.513Z,5.60
2023-02-07T04:34:54.308Z,4.70
2023-02-07T04:37:58.041Z,5.20
2023-02-07T04:41:05.216Z,5.10
2023-02-07T04:44:08.993Z,4.50
2023-02-07T04:47:12.622Z,4.67
2023-02-07T04:50:16.533Z,4.73
2023-02-07T04:53:20.537Z,5.37
2023-02-07T04:56:25.827Z,4.93
2023-02-07T04:59:29.651Z,5.50
2023-02-07T05:02:33.409Z,5.37
2023-02-07T05:05:40.107Z,5.83
2023-02-07T05:08:43.962Z,6.00
2023-02-07T05:11:49.110Z,5.73
2023-02-07T05:14:52.907Z,5.53
2023-02-07T05:17:57.190Z,5.80
2023-02-07T05:21:01.825Z,5.60
2023-02-07T05:24:05.680Z,5.53
2023-02-07T05:27:10.802Z,6.50
2023-02-07T05:30:15.347Z,6.30
2023-02-07T05:33:19.118Z,6.30
2023-02-07T05:36:22.773Z,6.37
2023-02-07T05:39:26.400Z,6.03
2023-02-07T05:42:31.630Z,6.13
2023-02-07T05:45:35.790Z,5.90
2023-02-07T05:48:39.457Z,5.80
2023-02-07T05:51:43.145Z,6.20
2023-02-07T05:54:46.749Z,5.73
2023-02-07T05:57:51.983Z,6.40
2023-02-07T06:00:57.134Z,5.80
2023-02-07T06:04:00.979Z,5.00
2023-02-07T06:07:05.372Z,5.80
2023-02-07T06:10:10.183Z,10.50
2023-02-07T06:13:15.524Z,16.60
2023-02-07T06:16:19.428Z,14.57
2023-02-07T06:19:23.331Z,14.70
2023-02-07T06:22:27.234Z,14.43
2023-02-07T06:25:31.251Z,16.53
2023-02-07T06:28:36.731Z,13.67
2023-02-07T06:31:40.648Z,14.60
2023-02-07T06:34:44.543Z,13.27
2023-02-07T06:37:48.459Z,12.50
2023-02-07T06:40:52.393Z,11.70
2023-02-07T06:43:57.964Z,12.50
2023-02-07T06:47:01.927Z,17.60
2023-02-07T06:50:08.176Z,19.57
2023-02-07T06:53:12.874Z,21.27
2023-02-07T06:56:18.611Z,23.17
2023-02-07T06:59:24.511Z,22.90
2023-02-07T07:02:28.897Z,21.93
2023-02-07T07:05:34.355Z,13.30
2023-02-07T07:08:38.217Z,10.10
2023-02-07T07:11:43.504Z,4.00
2023-02-07T07:14:48.939Z,7.77
2023-02-07T07:17:52.789Z,5.23
2023-02-07T07:20:57.409Z,5.23
2023-02-07T07:24:01.349Z,6.13
2023-02-07T07:27:05.403Z,7.07
2023-02-07T07:30:12.449Z,8.00
2023-02-07T07:33:16.389Z,5.60
2023-02-07T07:36:20.258Z,6.30
2023-02-07T07:39:24.309Z,7.70
2023-02-07T07:42:28.507Z,6.67
2023-02-07T07:46:07.995Z,6.63
2023-02-07T07:49:11.984Z,5.93
2023-02-07T07:52:15.858Z,6.40
2023-02-07T07:55:19.938Z,4.67
2023-02-07T07:58:25.435Z,5.90
2023-02-07T08:01:30.862Z,6.13
2023-02-07T08:04:34.912Z,6.20
2023-02-07T08:07:38.795Z,7.93
2023-02-07T08:10:43.172Z,6.90
2023-02-07T08:13:47.061Z,6.33
2023-02-07T08:16:52.444Z,6.40
2023-02-07T08:19:56.345Z,5.63
2023-02-07T08:23:00.224Z,5.90
2023-02-07T08:26:04.243Z,5.83
2023-02-07T08:29:08.153Z,5.33
2023-02-07T08:32:13.483Z,5.77
2023-02-07T08:35:17.604Z,5.53
2023-02-07T08:38:21.574Z,5.30
2023-02-07T08:41:25.443Z,5.20
2023-02-07T08:44:29.553Z,6.00
2023-02-07T08:47:35.017Z,6.47
2023-02-07T08:50:39.000Z,5.27
2023-02-07T08:53:43.028Z,6.10
2023-02-07T08:56:47.006Z,5.50
2023-02-07T08:59:51.004Z,4.70
2023-02-07T09:02:56.566Z,4.97
2023-02-07T09:06:01.053Z,5.90
2023-02-07T09:09:05.135Z,5.27
2023-02-07T09:12:10.616Z,5.43
2023-02-07T09:15:14.505Z,4.63
2023-02-07T09:18:19.854Z,4.20
2023-02-07T09:21:23.983Z,5.83
2023-02-07T09:24:27.948Z,5.50
2023-02-07T09:27:31.816Z,6.07
2023-02-07T09:30:35.964Z,6.10
2023-02-07T09:33:41.779Z,5.07
2023-02-07T09:36:45.961Z,4.47
2023-02-07T09:39:50.502Z,6.10
2023-02-07T09:43:00.216Z,5.83
2023-02-07T09:46:11.854Z,5.30
2023-02-07T09:49:29.000Z,4.30
2023-02-07T09:52:37.710Z,5.00
2023-02-07T09:55:48.164Z,5.30
2023-02-07T09:58:57.387Z,5.30
2023-02-07T10:02:06.449Z,5.27
2023-02-07T10:05:18.232Z,6.13
2023-02-07T10:08:24.781Z,5.00
2023-02-07T10:11:42.454Z,5.20
2023-02-07T10:15:10.966Z,5.20
2023-02-07T10:18:44.469Z,5.00
2023-02-07T10:21:57.650Z,5.97
2023-02-07T10:25:34.116Z,5.57
2023-02-07T10:28:59.758Z,5.17
2023-02-07T10:32:11.355Z,5.30
2023-02-07T10:35:22.004Z,5.87
2023-02-07T10:38:32.371Z,5.30
2023-02-07T10:41:38.932Z,5.37
2023-02-07T10:44:43.195Z,4.90
2023-02-07T10:47:47.343Z,11.53
2023-02-07T10:50:51.194Z,4.97
2023-02-07T10:54:09.092Z,3.57
2023-02-07T10:57:20.191Z,2.93
2023-02-07T11:00:27.778Z,3.73
2023-02-07T11:03:31.724Z,3.37
2023-02-07T11:06:36.385Z,3.30
2023-02-07T11:09:42.343Z,5.80
2023-02-07T11:12:48.417Z,7.60
2023-02-07T11:15:57.163Z,3.10
2023-02-07T11:19:02.993Z,3.10
2023-02-07T11:22:11.765Z,3.43
2023-02-07T11:25:17.276Z,3.50
2023-02-07T11:28:24.282Z,3.60
2023-02-07T11:31:32.331Z,3.60
2023-02-07T11:34:47.437Z,3.57
2023-02-07T11:38:03.538Z,5.93
2023-02-07T11:41:19.069Z,11.03
2023-02-07T11:44:26.254Z,34.10
2023-02-07T11:47:32.968Z,9.83
2023-02-07T11:50:41.338Z,8.13
2023-02-07T11:53:49.147Z,3.47
2023-02-07T11:56:56.669Z,3.63
2023-02-07T12:00:06.994Z,4.33
2023-02-07T12:03:23.915Z,6.40
2023-02-07T12:06:33.569Z,5.97
2023-02-07T12:09:45.869Z,8.23
2023-02-07T12:12:55.699Z,3.70
2023-02-07T12:16:04.624Z,5.90
2023-02-07T12:19:14.814Z,10.70
2023-02-07T12:22:21.973Z,3.93
2023-02-07T12:25:30.815Z,7.50
2023-02-07T12:28:42.291Z,11.63
2023-02-07T12:31:58.513Z,4.67
2023-02-07T12:35:12.731Z,4.70
2023-02-07T12:38:19.422Z,11.33
2023-02-07T12:41:27.422Z,10.40
2023-02-07T12:44:37.323Z,7.60
2023-02-07T12:47:49.842Z,11.53
2023-02-07T12:51:09.585Z,18.63
2023-02-07T12:54:25.533Z,6.33
2023-02-07T12:57:37.768Z,13.73
2023-02-07T13:00:53.923Z,6.20
2023-02-07T13:04:21.149Z,3.50
2023-02-07T13:07:45.837Z,6.30
2023-02-07T13:10:58.505Z,21.93
2023-02-07T13:14:19.878Z,7.93
2023-02-07T13:17:39.857Z,18.70
2023-02-07T13:20:52.849Z,8.43
2023-02-07T13:24:02.122Z,4.33
2023-02-07T13:27:13.012Z,3.73
2023-02-07T13:30:19.405Z,6.93
2023-02-07T13:33:32.941Z,10.50
2023-02-07T13:36:42.863Z,6.07
2023-02-07T13:39:58.374Z,4.13
2023-02-07T13:43:10.124Z,5.40
2023-02-07T13:46:27.782Z,5.13
2023-02-07T13:49:49.149Z,7.83
2023-02-07T13:53:00.488Z,40.63
2023-02-07T13:56:05.716Z,8.50
2023-02-07T13:59:41.416Z,8.93
2023-02-07T14:02:51.192Z,6.50
2023-02-07T14:06:17.692Z,6.90
2023-02-07T14:09:36.948Z,7.47
2023-02-07T14:12:41.607Z,15.80
2023-02-07T14:16:03.255Z,29.70
2023-02-07T14:19:07.786Z,19.17
2023-02-07T14:22:18.514Z,6.83
2023-02-07T14:25:26.261Z,6.90
2023-02-07T14:28:36.743Z,5.90
2023-02-07T14:31:49.150Z,7.10
2023-02-07T14:35:05.740Z,15.40
2023-02-07T14:38:24.295Z,21.03
2023-02-07T14:41:30.931Z,11.47
2023-02-07T14:44:38.174Z,11.70
2023-02-07T14:47:42.363Z,50.57
2023-02-07T14:50:54.302Z,17.10
2023-02-07T14:54:05.157Z,8.10
2023-02-07T14:57:25.518Z,4.83
2023-02-07T15:00:34.761Z,6.23
2023-02-07T15:03:38.705Z,6.73
2023-02-07T15:06:44.358Z,6.20
2023-02-07T15:09:49.889Z,6.93
2023-02-07T15:12:55.605Z,6.57
2023-02-07T15:16:02.219Z,5.53
2023-02-07T15:19:14.014Z,5.50
2023-02-07T15:22:27.382Z,6.07
2023-02-07T15:25:33.060Z,6.40
2023-02-07T15:28:37.045Z,7.10
2023-02-07T15:31:42.299Z,7.17
2023-02-07T15:34:46.760Z,8.00
2023-02-07T15:37:51.448Z,8.77
2023-02-07T15:40:56.928Z,8.43
2023-02-07T15:44:02.522Z,9.60
2023-02-07T15:47:07.923Z,7.93
2023-02-07T15:50:24.060Z,8.73
2023-02-07T15:53:30.934Z,7.70
2023-02-07T15:56:36.286Z,8.90
2023-02-07T15:59:43.576Z,9.07
2023-02-07T16:02:56.143Z,9.23
2023-02-07T16:06:05.358Z,10.13
2023-02-07T16:09:38.819Z,8.40
2023-02-07T16:12:50.692Z,8.13
2023-02-07T16:15:57.958Z,7.37
2023-02-07T16:19:08.149Z,6.93
2023-02-07T16:22:15.480Z,8.53
2023-02-07T16:25:21.556Z,9.37
2023-02-07T16:28:26.951Z,8.53
2023-02-07T16:31:32.213Z,9.40
2023-02-07T16:34:36.150Z,10.53
2023-02-07T16:37:40.041Z,9.63
2023-02-07T16:40:43.800Z,9.77
2023-02-07T16:43:49.287Z,10.70
2023-02-07T16:46:53.689Z,11.13
2023-02-07T16:49:57.483Z,11.47
2023-02-07T16:53:01.364Z,13.13
2023-02-07T16:56:05.471Z,12.57
2023-02-07T16:59:13.502Z,16.23
2023-02-07T17:02:18.647Z,13.17
2023-02-07T17:05:23.946Z,10.43
2023-02-07T17:08:30.452Z,10.83
2023-02-07T17:11:34.161Z,10.93
2023-02-07T17:14:39.479Z,12.50
2023-02-07T17:17:43.330Z,8.27
2023-02-07T17:20:47.174Z,9.03
2023-02-07T17:23:51.590Z,9.17
2023-02-07T17:26:57.284Z,9.93
2023-02-07T17:30:02.667Z,10.90
2023-02-07T17:33:06.687Z,12.30
2023-02-07T17:36:13.081Z,14.93
2023-02-07T17:39:18.123Z,30.70
2023-02-07T17:42:21.994Z,20.20
2023-02-07T17:45:28.204Z,17.13
2023-02-07T17:48:33.063Z,19.70
2023-02-07T17:51:36.852Z,14.03
2023-02-07T17:54:43.104Z,11.00
2023-02-07T17:57:47.094Z,12.53
2023-02-07T18:00:52.537Z,8.00
2023-02-07T18:03:57.522Z,9.37
2023-02-07T18:07:01.365Z,14.60
2023-02-07T18:10:07.014Z,13.70
2023-02-07T18:13:10.864Z,10.77
2023-02-07T18:16:18.373Z,9.47
2023-02-07T18:19:22.341Z,10.10
2023-02-07T18:22:26.081Z,11.43
2023-02-07T18:25:31.424Z,19.60
2023-02-07T18:28:35.411Z,13.90
2023-02-07T18:31:40.843Z,11.03
2023-02-07T18:34:45.338Z,14.23
2023-02-07T18:37:49.352Z,11.17
2023-02-07T18:40:53.238Z,41.40
2023-02-07T18:43:57.117Z,56.00
2023-02-07T18:47:02.399Z,39.40
2023-02-07T18:50:07.664Z,11.33
2023-02-07T18:53:11.606Z,12.93
2023-02-07T18:56:17.634Z,48.40
2023-02-07T18:59:22.173Z,65.93
2023-02-07T19:02:27.543Z,83.67
2023-02-07T19:05:31.354Z,89.17
2023-02-07T19:08:35.573Z,57.80
2023-02-07T19:11:40.559Z,23.90
2023-02-07T19:14:44.374Z,12.37
2023-02-07T19:17:49.847Z,22.50
2023-02-07T19:20:53.663Z,25.40
2023-02-07T19:23:59.373Z,9.80
2023-02-07T19:27:03.293Z,51.20
2023-02-07T19:30:08.593Z,34.07
2023-02-07T19:33:14.134Z,35.50
2023-02-07T19:36:19.450Z,11.33
2023-02-07T19:39:23.973Z,16.33
2023-02-07T19:42:28.313Z,8.97
2023-02-07T19:45:32.203Z,15.77
2023-02-07T19:48:37.464Z,8.43
2023-02-07T19:51:41.861Z,8.63
2023-02-07T19:54:45.973Z,31.13
2023-02-07T19:57:49.903Z,24.07
2023-02-07T20:00:53.772Z,13.20
2023-02-07T20:03:59.859Z,17.40
2023-02-07T20:07:03.732Z,15.47
2023-02-07T20:10:08.409Z,14.63
2023-02-07T20:13:13.186Z,10.00
2023-02-07T20:16:19.249Z,10.30
2023-02-07T20:19:24.618Z,10.57
2023-02-07T20:22:29.279Z,10.33
2023-02-07T20:25:36.008Z,11.30
2023-02-07T20:28:40.171Z,9.30
2023-02-07T20:31:44.740Z,8.90
2023-02-07T20:34:50.348Z,9.20
2023-02-07T20:37:54.418Z,12.97
2023-02-07T20:40:58.290Z,9.03
2023-02-07T20:44:05.212Z,9.90
2023-02-07T20:47:12.196Z,12.07
2023-02-07T20:50:17.449Z,10.63
2023-02-07T20:53:21.473Z,11.53
2023-02-07T20:56:25.402Z,11.37
2023-02-07T20:59:31.078Z,28.17
2023-02-07T21:02:35.102Z,20.90
2023-02-07T21:05:41.249Z,12.37
2023-02-07T21:08:45.530Z,11.20
2023-02-07T21:11:51.099Z,9.47
2023-02-07T21:14:55.100Z,11.07
2023-02-07T21:17:59.020Z,10.00
2023-02-07T21:21:07.226Z,12.63
2023-02-07T21:24:11.646Z,12.63
2023-02-07T21:27:15.488Z,12.33
2023-02-07T21:30:19.442Z,16.20
2023-02-07T21:33:23.384Z,10.50
2023-02-07T21:36:30.574Z,9.63
2023-02-07T21:39:34.567Z,9.83
2023-02-07T21:42:38.425Z,9.43
2023-02-07T21:45:42.267Z,20.53
2023-02-07T21:48:47.553Z,10.53
2023-02-07T21:51:54.069Z,9.40
2023-02-07T21:54:57.937Z,10.30
2023-02-07T21:58:01.896Z,8.40
2023-02-07T22:01:10.357Z,9.40
2023-02-07T22:04:15.151Z,9.33
2023-02-07T22:07:20.547Z,8.83
2023-02-07T22:10:24.469Z,8.60
2023-02-07T22:13:28.399Z,8.40
2023-02-07T22:16:34.301Z,9.40
2023-02-07T22:19:38.260Z,9.03
2023-02-07T22:22:43.653Z,8.47
2023-02-07T22:25:47.520Z,7.87
2023-02-07T22:28:51.845Z,8.83
2023-02-07T22:31:55.796Z,9.27
2023-02-07T22:34:59.625Z,10.53
2023-02-07T22:38:05.212Z,9.03
2023-02-07T22:41:09.994Z,11.00
2023-02-07T22:44:13.906Z,10.47
2023-02-07T22:47:17.818Z,10.50
2023-02-07T22:50:21.639Z,10.40
2023-02-07T22:53:27.018Z,10.90
2023-02-07T22:56:30.610Z,16.43
2023-02-07T22:59:34.323Z,12.00
2023-02-07T23:02:38.581Z,11.07
2023-02-07T23:05:42.535Z,18.30
2023-02-07T23:08:48.266Z,15.97
2023-02-07T23:11:52.183Z,12.47
2023-02-07T23:14:56.285Z,12.60
2023-02-07T23:18:00.131Z,11.20
2023-02-07T23:21:04.021Z,11.50
2023-02-07T23:24:10.945Z,11.73
2023-02-07T23:27:15.600Z,12.67
2023-02-07T23:30:19.392Z,11.10
2023-02-07T23:33:23.311Z,14.63
2023-02-07T23:36:27.578Z,20.67
2023-02-07T23:39:33.038Z,11.93
2023-02-07T23:42:36.911Z,11.03
2023-02-07T23:45:40.882Z,12.47
2023-02-07T23:48:44.910Z,12.87
2023-02-07T23:51:48.714Z,12.33
2023-02-07T23:54:54.185Z,12.07
2023-02-07T23:57:58.119Z,12.20
